Time;durP1;ratioP1;P1;durP2;ratioP2;P2;SDS_P1;SDS_P2;PMS_P1;PMS_P2;Temp;Humidity;BMP_temperature;BMP_pressure;BME280_temperature;BME280_humidity;BME280_pressure;Samples;Min_cycle;Max_cycle;Signal;HPM_P1;HPM_P2
2021/03/25 00:01:09;;;;;;;10.45;5.10;;;;;;;1.07;57.82;99829.94;5050958;28;20036;-48
2021/03/25 00:03:35;;;;;;;11.70;4.78;;;;;;;1.27;56.84;99829.91;5051692;28;20380;-47
2021/03/25 00:06:01;;;;;;;9.43;5.20;;;;;;;1.24;57.87;99828.41;5033248;28;20481;-46
2021/03/25 00:08:26;;;;;;;9.82;5.15;;;;;;;1.35;57.37;99828.22;5050945;28;20033;-47
2021/03/25 00:10:52;;;;;;;10.35;4.90;;;;;;;1.14;57.70;99825.78;5050959;28;20071;-50
2021/03/25 00:13:18;;;;;;;10.02;5.50;;;;;;;0.98;58.80;99828.16;5050434;28;20104;-48
2021/03/25 00:15:44;;;;;;;9.27;4.88;;;;;;;0.99;58.80;99821.94;5050985;28;20029;-50
2021/03/25 00:18:10;;;;;;;9.82;4.88;;;;;;;0.84;58.26;99828.56;5051909;28;20082;-52
2021/03/25 00:20:35;;;;;;;8.43;4.68;;;;;;;0.84;58.86;99832.03;5051694;28;20067;-48
2021/03/25 00:23:01;;;;;;;8.82;4.90;;;;;;;0.71;59.24;99824.44;5051486;28;20064;-49
2021/03/25 00:25:29;;;;;;;9.50;4.65;;;;;;;0.92;58.38;99833.94;5051573;28;20461;-48
2021/03/25 00:27:55;;;;;;;9.35;4.80;;;;;;;0.91;59.14;99824.44;5051409;28;20029;-48
2021/03/25 00:30:25;;;;;;;8.98;4.97;;;;;;;0.81;59.15;99824.44;5051137;28;20091;-48
2021/03/25 00:32:50;;;;;;;;;;;;;;;0.84;59.78;99825.94;5051922;28;20025;-49
2021/03/25 00:35:16;;;;;;;9.10;4.53;;;;;;;0.72;59.44;99825.25;5050995;28;19958;-49
2021/03/25 00:37:41;;;;;;;9.48;4.50;;;;;;;0.64;59.81;99827.75;5050440;28;20033;-48
2021/03/25 00:40:07;;;;;;;8.05;4.28;;;;;;;0.29;60.50;99829.91;5051245;28;20468;-48
2021/03/25 00:42:33;;;;;;;7.88;3.97;;;;;;;0.20;62.08;99830.72;5051197;28;20055;-47
2021/03/25 00:44:58;;;;;;;6.95;4.15;;;;;;;0.43;61.01;99833.91;5051004;28;20358;-47
2021/03/25 00:47:24;;;;;;;8.15;4.28;;;;;;;0.77;60.12;99829.13;5050550;28;20185;-48
2021/03/25 00:49:49;;;;;;;8.55;4.70;;;;;;;0.58;59.77;99835.19;5050871;28;20062;-48
2021/03/25 00:52:15;;;;;;;7.22;4.22;;;;;;;0.51;60.48;99828.81;5051115;28;20503;-47
2021/03/25 00:54:40;;;;;;;8.13;4.18;;;;;;;0.51;60.98;99831.44;5051031;28;20021;-48
2021/03/25 00:57:06;;;;;;;6.03;3.83;;;;;;;0.52;60.50;99824.44;5051148;28;20477;-48
2021/03/25 00:59:32;;;;;;;8.32;4.32;;;;;;;0.36;61.49;99831.03;5050425;28;20013;-47
2021/03/25 01:01:57;;;;;;;8.13;4.55;;;;;;;0.46;61.45;99830.19;5050727;28;20366;-47
2021/03/25 01:04:23;;;;;;;6.85;3.85;;;;;;;0.27;61.82;99831.03;5050965;28;20107;-49
2021/03/25 01:06:48;;;;;;;8.57;4.70;;;;;;;0.19;61.44;99827.28;5050416;28;20115;-48
2021/03/25 01:09:24;;;;;;;7.30;4.03;;;;;;;0.32;62.29;99831.44;5050741;28;20027;-48
2021/03/25 01:11:50;;;;;;;6.85;4.35;;;;;;;0.23;61.82;99821.75;5050889;28;20101;-47
2021/03/25 01:14:15;;;;;;;9.77;4.78;;;;;;;0.25;61.54;99822.44;5050667;28;20393;-50
2021/03/25 01:16:43;;;;;;;8.30;4.40;;;;;;;0.34;62.16;99822.50;5050520;28;20508;-48
2021/03/25 01:19:19;;;;;;;8.32;4.40;;;;;;;0.27;61.68;99821.38;5050504;28;20191;-48
2021/03/25 01:21:44;;;;;;;8.57;4.70;;;;;;;0.37;61.24;99822.19;5050804;28;20043;-47
2021/03/25 01:24:10;;;;;;;7.95;4.43;;;;;;;0.07;61.27;99819.66;5049070;28;20434;-47
2021/03/25 01:26:36;;;;;;;7.20;4.20;;;;;;;0.19;62.14;99819.44;5050519;28;20025;-47
2021/03/25 01:29:02;;;;;;;10.40;4.22;;;;;;;0.31;61.92;99817.50;5050118;28;20021;-47
2021/03/25 01:31:28;;;;;;;7.82;4.43;;;;;;;0.22;61.27;99822.72;5050490;28;20119;-47
2021/03/25 01:33:54;;;;;;;9.75;4.55;;;;;;;0.33;60.97;99818.19;5050055;28;20111;-47
2021/03/25 01:36:20;;;;;;;8.18;4.72;;;;;;;0.38;61.95;99825.63;5050336;28;20025;-48
2021/03/25 01:38:45;;;;;;;10.98;4.22;;;;;;;0.07;61.98;99827.50;5050773;28;20021;-47
2021/03/25 01:41:10;;;;;;;7.85;4.22;;;;;;;0.05;62.17;99827.66;5050316;28;20385;-48
2021/03/25 01:43:39;;;;;;;8.27;4.55;;;;;;;0.23;61.68;99824.38;5050316;28;20032;-47
2021/03/25 01:46:30;;;;;;;9.30;4.53;;;;;;;0.12;61.82;99822.72;5050194;28;20025;-48
2021/03/25 01:49:02;;;;;;;9.82;4.65;;;;;;;0.01;62.89;99815.78;5053704;28;20028;-49
2021/03/25 01:51:57;;;;;;;7.72;4.55;;;;;;;0.05;62.75;99819.78;5054572;28;20032;-48
2021/03/25 01:54:37;;;;;;;8.68;4.20;;;;;;;-0.06;62.18;99820.75;5053133;28;20104;-48
2021/03/25 01:57:08;;;;;;;7.72;4.60;;;;;;;0.11;61.86;99821.88;5052969;28;20496;-50
2021/03/25 01:59:53;;;;;;;8.70;4.60;;;;;;;0.17;62.01;99823.97;5054235;28;20059;-50
2021/03/25 02:02:36;;;;;;;11.10;4.38;;;;;;;0.21;62.29;99821.91;5054071;28;20040;-48
2021/03/25 02:05:18;;;;;;;9.05;5.47;;;;;;;0.22;61.66;99822.72;5054130;28;20091;-50
2021/03/25 02:08:08;;;;;;;11.93;5.00;;;;;;;0.46;61.29;99811.88;5052959;28;20106;-50
2021/03/25 02:10:49;;;;;;;13.30;5.93;;;;;;;0.28;61.86;99823.00;5054262;28;20139;-48
2021/03/25 02:13:30;;;;;;;9.85;5.32;;;;;;;0.22;61.80;99834.03;5037179;28;20021;-51
2021/03/25 02:16:15;;;;;;;9.18;5.15;;;;;;;0.22;61.50;99828.78;5053688;28;20103;-49
2021/03/25 02:18:49;;;;;;;12.80;6.40;;;;;;;0.21;62.12;99832.38;5036347;28;20035;-49
2021/03/25 02:21:42;;;;;;;11.43;5.85;;;;;;;0.08;61.47;99832.63;5051960;28;20111;-48
2021/03/25 02:24:17;;;;;;;9.73;5.38;;;;;;;0.07;62.58;99835.38;5033967;28;20028;-48
2021/03/25 02:26:55;;;;;;;9.82;5.90;;;;;;;0.07;61.72;99848.44;5033557;28;20481;-47
2021/03/25 02:29:52;;;;;;;11.88;5.35;;;;;;;0.31;60.55;99846.31;5032329;28;20512;-49
2021/03/25 02:32:29;;;;;;;12.82;6.15;;;;;;;0.20;60.46;99851.66;5047831;28;20020;-46
2021/03/25 02:34:56;;;;;;;10.63;5.95;;;;;;;0.33;60.24;99849.63;5052263;28;20036;-48
2021/03/25 02:37:31;;;;;;;16.23;6.70;;;;;;;0.42;59.65;99860.25;5035804;28;20128;-47
2021/03/25 02:40:03;;;;;;;12.07;6.18;;;;;;;0.37;59.35;99858.84;5035394;28;20020;-51
2021/03/25 02:42:32;;;;;;;12.35;6.43;;;;;;;0.34;59.40;99866.16;5053789;28;20028;-47
2021/03/25 02:45:02;;;;;;;11.35;5.82;;;;;;;0.33;59.53;99862.72;5035946;28;20449;-47
2021/03/25 02:47:27;;;;;;;12.70;6.65;;;;;;;0.38;60.06;99860.53;5035803;28;20041;-49
2021/03/25 02:50:01;;;;;;;12.15;6.75;;;;;;;0.62;59.32;99859.31;5051897;28;20237;-49
2021/03/25 02:52:35;;;;;;;13.80;6.95;;;;;;;0.42;58.76;99865.47;5036399;28;20531;-48
2021/03/25 02:55:04;;;;;;;11.88;6.30;;;;;;;0.47;59.10;99871.97;5051931;28;20440;-47
2021/03/25 02:57:44;;;;;;;13.30;7.35;;;;;;;0.20;60.87;99877.84;5035265;28;20040;-47
2021/03/25 03:00:16;;;;;;;11.82;6.60;;;;;;;0.33;59.45;99857.47;5031918;28;20022;-48
2021/03/25 03:02:45;;;;;;;12.70;6.35;;;;;;;0.28;59.09;99859.66;5015765;28;20571;-50
2021/03/25 03:05:15;;;;;;;11.75;6.53;;;;;;;0.49;58.63;99848.25;5015291;28;20046;-48
2021/03/25 03:08:05;;;;;;;12.18;7.05;;;;;;;0.37;59.47;99863.28;5031843;28;20470;-51
2021/03/25 03:10:36;;;;;;;12.05;6.57;;;;;;;0.31;58.99;99850.72;5032603;28;20056;-45
2021/03/25 03:13:02;;;;;;;12.45;6.32;;;;;;;0.20;59.36;99867.38;5031603;28;20460;-48
2021/03/25 03:15:30;;;;;;;12.02;6.65;;;;;;;-0.03;59.54;99854.47;5031778;28;20032;-48
2021/03/25 03:18:03;;;;;;;11.77;6.45;;;;;;;0.29;59.10;99870.97;5015152;28;20804;-46
2021/03/25 03:20:48;;;;;;;11.57;5.93;;;;;;;0.36;58.61;99869.47;5048071;28;20064;-47
2021/03/25 03:23:14;;;;;;;13.73;6.57;;;;;;;0.08;59.18;99873.69;5045201;28;20052;-46
2021/03/25 03:25:39;;;;;;;12.82;6.68;;;;;;;0.10;58.64;99871.75;5051153;28;20037;-47
2021/03/25 03:28:18;;;;;;;12.00;6.95;;;;;;;0.09;58.13;99876.13;5052154;28;20029;-47
2021/03/25 03:30:49;;;;;;;16.13;7.07;;;;;;;0.14;57.97;99873.97;5034994;28;20028;-48
2021/03/25 03:33:15;;;;;;;14.13;7.15;;;;;;;0.04;58.29;99880.09;5035004;28;20017;-47
2021/03/25 03:35:50;;;;;;;15.25;7.00;;;;;;;0.07;57.25;99880.69;5052330;28;20036;-47
2021/03/25 03:38:17;;;;;;;11.63;6.90;;;;;;;0.39;56.99;99882.28;5034754;28;20028;-49
2021/03/25 03:40:44;;;;;;;16.90;7.18;;;;;;;0.50;57.29;99881.34;5033995;28;20456;-46
2021/03/25 03:43:12;;;;;;;24.10;10.13;;;;;;;0.22;56.52;99886.38;5050648;28;20539;-46
2021/03/25 03:45:39;;;;;;;16.70;9.05;;;;;;;0.17;55.98;99888.56;5034370;28;20027;-50
2021/03/25 03:48:07;;;;;;;28.52;12.27;;;;;;;-0.10;57.11;99881.31;5050632;28;20029;-47
2021/03/25 03:50:38;;;;;;;13.85;7.32;;;;;;;-0.14;57.58;99885.97;5034551;28;20025;-47
2021/03/25 03:53:03;;;;;;;11.48;5.80;;;;;;;0.28;55.94;99893.69;5034936;28;20021;-47
2021/03/25 03:55:29;;;;;;;12.32;6.03;;;;;;;0.37;55.50;99900.75;5051899;28;20023;-48
2021/03/25 03:58:07;;;;;;;10.50;5.50;;;;;;;0.26;56.15;99900.84;5034196;28;20113;-48
2021/03/25 04:00:39;;;;;;;9.20;5.53;;;;;;;0.55;55.48;99905.34;5050581;28;20025;-48
2021/03/25 04:03:09;;;;;;;12.85;5.97;;;;;;;0.22;55.65;99873.28;5050679;28;20028;-49
2021/03/25 04:05:40;;;;;;;45.78;19.75;;;;;;;0.80;55.36;99919.72;5033999;28;20171;-50
2021/03/25 04:08:05;;;;;;;10.32;5.28;;;;;;;0.17;56.19;99912.13;5033968;28;20185;-49
2021/03/25 04:10:44;;;;;;;7.90;4.90;;;;;;;0.48;55.66;99904.25;5051201;28;20099;-47
2021/03/25 04:13:12;;;;;;;9.75;5.35;;;;;;;0.55;55.58;99894.84;5050495;28;20097;-48
2021/03/25 04:15:38;;;;;;;8.65;5.25;;;;;;;0.61;54.71;99898.72;5034117;28;20040;-48
2021/03/25 04:18:07;;;;;;;11.25;5.32;;;;;;;0.28;55.87;99905.97;5033824;28;20462;-50
2021/03/25 04:20:33;;;;;;;10.30;5.75;;;;;;;0.44;56.22;99910.69;5034085;28;20039;-50
2021/03/25 04:23:01;;;;;;;11.65;6.07;;;;;;;0.63;54.75;99907.28;5050137;28;20033;-50
2021/03/25 04:25:32;;;;;;;12.00;5.57;;;;;;;0.57;54.66;99906.03;5050047;28;20468;-46
2021/03/25 04:28:03;;;;;;;11.60;5.72;;;;;;;0.81;53.87;99908.28;5050096;28;20394;-50
2021/03/25 04:30:33;;;;;;;14.40;5.57;;;;;;;0.96;53.11;99906.09;5050028;28;20029;-51
2021/03/25 04:32:59;;;;;;;14.93;6.60;;;;;;;0.82;54.54;99898.63;5050121;28;20098;-50
2021/03/25 04:35:25;;;;;;;13.05;6.30;;;;;;;0.85;54.21;99914.91;5050346;28;20044;-48
2021/03/25 04:37:50;;;;;;;7.68;4.85;;;;;;;1.15;53.00;99910.50;5050424;28;20025;-48
2021/03/25 04:40:32;;;;;;;11.80;4.78;;;;;;;1.04;53.23;99929.81;5029071;28;20136;-47
2021/03/25 04:42:57;;;;;;;6.40;3.97;;;;;;;0.88;53.61;99934.78;5045288;28;20116;-48
2021/03/25 04:45:45;;;;;;;9.57;4.68;;;;;;;1.13;53.18;99939.47;5030455;28;20453;-49
2021/03/25 04:48:13;;;;;;;19.63;9.30;;;;;;;1.00;53.15;99938.91;5044249;28;20029;-47
2021/03/25 04:50:39;;;;;;;11.88;5.30;;;;;;;1.02;53.24;99952.72;5013476;28;20056;-49
2021/03/25 04:53:29;;;;;;;9.63;5.32;;;;;;;1.43;51.81;99955.19;5029055;28;20113;-50
2021/03/25 04:55:56;;;;;;;12.75;5.93;;;;;;;1.18;52.62;99941.66;5030366;28;20095;-50
2021/03/25 04:58:34;;;;;;;14.05;5.85;;;;;;;1.23;53.27;99959.63;5028853;28;20040;-51
2021/03/25 05:01:07;;;;;;;10.68;5.03;;;;;;;1.06;53.55;99958.50;5025199;28;20055;-50
2021/03/25 05:03:41;;;;;;;10.02;5.28;;;;;;;1.47;53.40;99956.59;5028668;28;20033;-46
2021/03/25 05:06:06;;;;;;;12.27;4.95;;;;;;;1.34;52.94;99964.72;5027080;28;20079;-51
2021/03/25 05:08:32;;;;;;;8.90;4.60;;;;;;;1.09;53.49;99972.16;5028207;28;20037;-47
2021/03/25 05:11:06;;;;;;;11.60;5.03;;;;;;;1.25;52.79;99973.41;5028210;28;20025;-48
2021/03/25 05:13:39;;;;;;;8.35;4.60;;;;;;;1.23;53.11;99970.94;5028078;28;20094;-49
2021/03/25 05:16:12;;;;;;;11.20;5.43;;;;;;;1.14;53.55;99963.88;5029603;28;20090;-48
2021/03/25 05:18:38;;;;;;;12.13;5.65;;;;;;;1.24;53.34;99961.25;5026614;28;20043;-47
2021/03/25 05:21:27;;;;;;;11.07;5.80;;;;;;;1.49;52.70;99958.09;5015153;28;20389;-48
2021/03/25 05:24:10;;;;;;;11.90;5.80;;;;;;;1.53;52.61;99962.09;5046882;28;20033;-48
2021/03/25 05:26:42;;;;;;;9.77;5.60;;;;;;;1.56;52.65;99964.44;5048390;28;20115;-48
2021/03/25 05:29:07;;;;;;;17.20;5.38;;;;;;;2.20;50.54;99963.88;5031363;28;20029;-48
2021/03/25 05:31:34;;;;;;;9.20;4.95;;;;;;;2.65;49.97;99965.75;5035046;28;20029;-47
2021/03/25 05:34:02;;;;;;;13.73;4.78;;;;;;;2.56;49.94;99972.69;5048108;28;20072;-48
2021/03/25 05:36:29;;;;;;;8.27;4.68;;;;;;;2.59;51.58;99969.78;5038068;28;20397;-48
2021/03/25 05:38:54;;;;;;;10.65;4.82;;;;;;;3.08;50.11;99970.28;5040056;28;20039;-48
2021/03/25 05:41:35;;;;;;;11.55;5.68;;;;;;;3.41;48.56;99975.03;5039092;28;20484;-49
2021/03/25 05:44:06;;;;;;;12.00;5.35;;;;;;;3.46;47.58;99970.97;5036325;28;20435;-52
2021/03/25 05:46:38;;;;;;;16.08;6.82;;;;;;;3.37;48.53;99976.31;5039003;28;20177;-38
2021/03/25 05:49:31;;;;;;;13.98;7.18;;;;;;;3.27;49.04;99974.59;5038144;28;20052;-39
2021/03/25 05:52:15;;;;;;;11.50;5.38;;;;;;;3.21;49.51;99977.00;5038158;28;20052;-37
2021/03/25 05:54:45;;;;;;;13.32;5.70;;;;;;;3.78;47.79;99977.47;5039739;28;20385;-49
2021/03/25 05:57:26;;;;;;;16.25;6.25;;;;;;;3.77;47.48;99981.09;5037262;28;20168;-49
2021/03/25 05:59:58;;;;;;;10.35;6.20;;;;;;;3.51;48.25;99981.88;5039669;28;20064;-52
2021/03/25 06:02:40;;;;;;;11.77;5.78;;;;;;;3.97;47.50;99980.91;5039553;28;20095;-39
2021/03/25 06:05:09;;;;;;;13.07;5.53;;;;;;;3.70;48.55;99993.22;5040221;28;20136;-39
2021/03/25 06:07:40;;;;;;;12.38;5.00;;;;;;;3.55;48.70;99998.19;5038582;28;20027;-39
2021/03/25 06:10:29;;;;;;;10.60;5.45;;;;;;;3.74;47.44;99997.19;5037945;28;20051;-52
2021/03/25 06:13:03;;;;;;;9.68;5.20;;;;;;;4.21;47.41;99998.66;5040494;28;20017;-52
2021/03/25 06:16:07;;;;;;;11.20;5.03;;;;;;;4.64;45.87;99989.78;5040563;28;20119;-50
2021/03/25 06:18:51;;;;;;;13.20;5.43;;;;;;;4.27;46.65;99998.84;4993345;28;20028;-39
2021/03/25 06:21:51;;;;;;;27.38;13.00;;;;;;;4.31;46.21;100002.81;5038449;28;20028;-39
2021/03/25 06:24:49;;;;;;;16.35;6.90;;;;;;;4.67;45.68;100000.03;4997226;28;20033;-51
2021/03/25 06:27:42;;;;;;;11.27;5.32;;;;;;;4.75;48.02;100004.50;5038021;28;20034;-51
2021/03/25 06:30:10;;;;;;;11.05;5.60;;;;;;;5.21;46.64;100009.41;5025744;28;20036;-39
2021/03/25 06:32:50;;;;;;;12.23;8.10;;;;;;;4.88;45.11;100015.44;5060994;28;20099;-39
2021/03/25 06:35:22;;;;;;;10.18;5.75;;;;;;;5.55;43.98;100008.47;5051429;28;20488;-40
2021/03/25 06:38:09;;;;;;;10.80;5.68;;;;;;;5.60;43.31;100022.03;5035785;28;20112;-38
2021/03/25 06:40:40;;;;;;;12.90;5.00;;;;;;;4.64;44.52;100016.16;5031333;28;20098;-37
2021/03/25 06:43:43;;;;;;;10.50;5.78;;;;;;;5.19;44.11;100027.22;5035154;28;20108;-38
2021/03/25 06:46:11;;;;;;;14.93;7.70;;;;;;;5.80;43.03;100023.31;5051510;28;20025;-39
2021/03/25 06:48:41;;;;;;;16.17;7.97;;;;;;;5.88;43.47;100030.41;5052871;28;20028;-39
2021/03/25 06:51:27;;;;;;;11.38;5.82;;;;;;;5.69;43.46;100034.22;5035013;28;20025;-50
2021/03/25 06:54:15;;;;;;;7.40;4.50;;;;;;;6.42;41.79;100025.41;5052550;28;20045;-38
2021/03/25 06:56:44;;;;;;;9.50;4.72;;;;;;;6.91;40.33;100016.50;5052577;28;20025;-39
2021/03/25 06:59:30;;;;;;;11.18;4.65;;;;;;;6.95;40.56;100023.09;5040646;28;20799;-38
2021/03/25 07:02:14;;;;;;;9.00;4.78;;;;;;;7.83;39.20;100023.66;5016039;28;20028;-38
2021/03/25 07:04:42;;;;;;;9.10;4.90;;;;;;;7.89;39.27;100022.94;5032391;28;20104;-38
2021/03/25 07:07:14;;;;;;;12.77;4.90;;;;;;;7.85;39.40;100018.19;5022483;28;20034;-38
2021/03/25 07:09:39;;;;;;;12.55;5.18;;;;;;;8.19;39.23;100015.88;5045339;28;20033;-38
2021/03/25 07:12:07;;;;;;;8.23;4.82;;;;;;;7.96;38.04;100020.41;5034921;28;20036;-39
2021/03/25 07:14:39;;;;;;;8.60;4.50;;;;;;;8.33;38.48;100031.97;5051165;28;20028;-39
2021/03/25 07:17:06;;;;;;;20.38;5.47;;;;;;;8.73;37.31;100027.25;5049980;28;20028;-38
2021/03/25 07:19:33;;;;;;;13.85;7.13;;;;;;;9.06;37.64;100032.13;5051464;28;20508;-39
2021/03/25 07:22:15;;;;;;;10.52;6.18;;;;;;;9.07;37.62;100025.81;5046690;28;20025;-39
2021/03/25 07:24:41;;;;;;;9.13;4.68;;;;;;;8.77;37.74;100028.50;5031541;28;20079;-39
2021/03/25 07:27:12;;;;;;;14.32;7.60;;;;;;;8.86;37.85;100029.25;5031724;28;20025;-39
2021/03/25 07:29:39;;;;;;;12.02;7.38;;;;;;;9.20;36.86;100026.78;5031139;28;20535;-39
2021/03/25 07:32:04;;;;;;;7.78;4.35;;;;;;;9.44;36.63;100026.63;5031317;28;20480;-51
2021/03/25 07:34:38;;;;;;;12.65;4.45;;;;;;;8.85;38.07;100033.72;5031434;28;20104;-49
2021/03/25 07:37:05;;;;;;;10.77;5.50;;;;;;;9.26;37.53;100035.03;5031115;28;20052;-50
2021/03/25 07:39:35;;;;;;;10.57;4.70;;;;;;;8.73;37.21;100028.06;5030181;28;20100;-49
2021/03/25 07:42:01;;;;;;;9.10;4.90;;;;;;;9.50;37.03;100039.13;5022953;28;20024;-48
2021/03/25 07:44:35;;;;;;;9.10;4.63;;;;;;;9.79;36.32;100041.69;5069757;28;20061;-48
2021/03/25 07:47:24;;;;;;;8.40;5.28;;;;;;;10.12;35.74;100033.16;5070505;28;20025;-49
2021/03/25 07:49:49;;;;;;;9.45;5.38;;;;;;;10.06;37.15;100033.91;5069295;28;20021;-50
2021/03/25 07:52:30;;;;;;;8.73;4.95;;;;;;;9.90;36.07;100034.19;5069757;28;20023;-48
2021/03/25 07:55:10;;;;;;;10.18;4.82;;;;;;;10.63;35.36;100031.25;5070916;28;20016;-38
2021/03/25 07:57:42;;;;;;;8.80;4.95;;;;;;;10.69;35.82;100033.94;5069811;28;20039;-51
2021/03/25 08:00:14;;;;;;;8.07;4.60;;;;;;;10.99;34.80;100032.88;5070798;28;20020;-48
2021/03/25 08:02:40;;;;;;;7.13;4.47;;;;;;;10.58;36.08;100031.84;5070699;28;20075;-39
2021/03/25 08:05:15;;;;;;;7.28;4.07;;;;;;;10.55;34.92;100037.56;5070749;28;20048;-39
2021/03/25 08:07:41;;;;;;;11.02;4.60;;;;;;;10.33;36.28;100026.97;5070461;28;20404;-39
2021/03/25 08:10:07;;;;;;;6.97;4.45;;;;;;;10.98;34.71;100018.72;5069282;28;20028;-39
2021/03/25 08:12:34;;;;;;;8.38;4.82;;;;;;;12.18;33.23;100034.06;5070597;28;20028;-39
2021/03/25 08:15:16;;;;;;;4.85;3.20;;;;;;;11.87;32.10;100028.31;5069312;28;20020;-38
2021/03/25 08:17:50;;;;;;;5.85;3.50;;;;;;;11.78;32.38;100031.38;5053722;28;20493;-38
2021/03/25 08:20:40;;;;;;;4.53;3.10;;;;;;;11.64;32.75;100022.56;5070288;28;20012;-38
2021/03/25 08:23:39;;;;;;;3.83;2.85;;;;;;;11.86;30.90;100017.84;5057403;28;20025;-40
2021/03/25 08:26:38;;;;;;;4.68;3.33;;;;;;;11.85;31.44;100010.88;5048923;28;20029;-38
2021/03/25 08:29:12;;;;;;;7.00;3.33;;;;;;;11.71;31.11;100005.56;5023545;28;20258;-38
2021/03/25 08:31:39;;;;;;;4.88;3.30;;;;;;;11.80;31.82;100011.47;5050289;28;20035;-37
2021/03/25 08:34:08;;;;;;;5.65;3.40;;;;;;;11.65;32.75;100014.38;5048792;28;20155;-50
2021/03/25 08:36:42;;;;;;;4.40;3.17;;;;;;;12.07;31.82;100019.50;5049789;28;20033;-40
2021/03/25 08:39:27;;;;;;;6.30;3.60;;;;;;;12.17;30.64;100013.78;5049882;28;20028;-48
2021/03/25 08:41:53;;;;;;;6.82;3.90;;;;;;;11.19;31.51;100007.09;5049668;28;20025;-39
2021/03/25 08:44:49;;;;;;;5.45;3.15;;;;;;;11.67;30.19;100004.31;5049569;28;20163;-50
2021/03/25 08:47:20;;;;;;;5.68;3.20;;;;;;;11.99;30.84;100009.88;5044492;28;20452;-39
2021/03/25 08:49:58;;;;;;;5.38;3.33;;;;;;;12.01;32.36;100015.00;5028412;28;20029;-38
2021/03/25 08:52:24;;;;;;;6.43;3.83;;;;;;;11.87;32.59;100009.66;5029950;28;20183;-48
2021/03/25 08:54:57;;;;;;;5.60;3.95;;;;;;;12.03;32.86;100013.78;5028874;28;20091;-38
2021/03/25 08:57:26;;;;;;;6.80;3.92;;;;;;;11.92;31.80;100011.75;5012291;28;20083;-39
2021/03/25 08:59:53;;;;;;;8.82;6.00;;;;;;;12.24;31.24;100014.56;5028270;28;20075;-38
2021/03/25 09:02:40;;;;;;;4.45;3.17;;;;;;;12.01;31.47;100009.66;5029505;28;20033;-38
2021/03/25 09:05:16;;;;;;;5.32;3.20;;;;;;;11.91;31.37;100018.91;5029449;28;20045;-38
2021/03/25 09:07:41;;;;;;;9.18;3.30;;;;;;;11.58;30.04;100015.38;5028416;28;20029;-49
2021/03/25 09:10:30;;;;;;;6.85;4.40;;;;;;;11.23;31.21;100018.16;5028355;28;20032;-38
2021/03/25 09:12:55;;;;;;;5.80;3.42;;;;;;;10.94;32.67;100023.59;5028798;28;20025;-38
2021/03/25 09:15:22;;;;;;;4.63;3.17;;;;;;;10.88;32.87;100013.75;5029586;28;20512;-48
2021/03/25 09:17:59;;;;;;;4.32;3.22;;;;;;;10.81;32.67;100006.75;5029355;28;20597;-39
2021/03/25 09:20:32;;;;;;;4.82;3.20;;;;;;;11.04;33.38;100017.94;5011852;28;20112;-49
2021/03/25 09:22:58;;;;;;;6.03;3.35;;;;;;;11.11;33.76;100013.41;5013038;28;20053;-47
2021/03/25 09:25:27;;;;;;;6.45;3.63;;;;;;;11.28;32.71;100008.56;5029309;28;20026;-48
2021/03/25 09:28:09;;;;;;;5.40;3.25;;;;;;;11.32;31.98;100015.13;5029039;28;20029;-39
2021/03/25 09:30:42;;;;;;;5.43;3.20;;;;;;;10.74;32.11;100012.88;5044578;28;20128;-47
2021/03/25 09:33:40;;;;;;;7.47;3.85;;;;;;;10.41;33.47;100014.53;5041778;28;20107;-49
2021/03/25 09:36:17;;;;;;;5.35;3.38;;;;;;;9.98;34.34;100012.81;5039282;28;20025;-38
2021/03/25 09:39:03;;;;;;;5.10;3.20;;;;;;;10.28;32.96;100017.91;5038672;28;20033;-38
2021/03/25 09:41:29;;;;;;;4.70;3.08;;;;;;;10.30;32.63;100007.88;5035582;28;20041;-51
2021/03/25 09:43:55;;;;;;;4.70;3.08;;;;;;;11.01;33.54;100005.00;5033901;28;20037;-51
2021/03/25 09:46:27;;;;;;;5.30;3.10;;;;;;;11.35;31.10;100008.59;5037096;28;20025;-39
2021/03/25 09:48:55;;;;;;;5.13;3.28;;;;;;;11.51;31.75;100010.03;5018006;28;20124;-39
2021/03/25 09:51:25;;;;;;;5.22;3.50;;;;;;;11.54;32.04;100006.97;5011333;28;20475;-49
2021/03/25 09:53:55;;;;;;;4.95;3.00;;;;;;;11.15;32.34;99997.88;5027659;28;20017;-48
2021/03/25 09:56:30;;;;;;;5.15;3.30;;;;;;;11.57;31.22;99995.88;5028992;28;20096;-48
2021/03/25 09:58:56;;;;;;;5.35;3.60;;;;;;;11.41;31.47;99996.28;5028680;28;20036;-47
2021/03/25 10:01:51;;;;;;;7.82;3.50;;;;;;;11.45;31.14;100001.00;5027863;28;20095;-49
2021/03/25 10:04:33;;;;;;;4.90;2.95;;;;;;;11.42;30.34;99989.94;5029100;28;20100;-38
2021/03/25 10:07:00;;;;;;;8.68;3.97;;;;;;;11.11;33.22;100000.09;5041535;28;20056;-39
2021/03/25 10:09:51;;;;;;;6.65;4.18;;;;;;;10.96;32.84;99994.94;5051601;28;20081;-48
2021/03/25 10:12:44;;;;;;;6.32;3.80;;;;;;;11.37;32.68;99995.88;5052703;28;20063;-52
2021/03/25 10:15:31;;;;;;;7.03;3.65;;;;;;;11.02;32.29;99992.50;5052358;28;20029;-47
2021/03/25 10:17:57;;;;;;;5.90;3.65;;;;;;;11.00;32.77;99995.34;5052668;28;20493;-50
2021/03/25 10:20:47;;;;;;;7.55;3.22;;;;;;;10.96;33.32;99988.78;5069084;28;20039;-50
2021/03/25 10:23:27;;;;;;;6.18;3.80;;;;;;;10.60;32.14;99994.38;5053446;28;20036;-48
2021/03/25 10:26:01;;;;;;;6.10;3.55;;;;;;;10.57;32.90;99996.41;5052596;28;20112;-49
2021/03/25 10:28:29;;;;;;;9.52;5.60;;;;;;;10.27;34.32;99993.16;5052394;28;20024;-46
2021/03/25 10:31:05;;;;;;;4.95;3.40;;;;;;;9.84;34.98;99992.44;5050928;28;20032;-50
2021/03/25 10:33:31;;;;;;;4.80;3.42;;;;;;;10.63;33.18;99988.69;5035255;28;20493;-38
2021/03/25 10:35:59;;;;;;;4.78;3.50;;;;;;;11.24;31.39;99994.00;5052338;28;20025;-38
2021/03/25 10:38:29;;;;;;;7.68;4.70;;;;;;;11.33;30.26;99984.81;5052425;28;20032;-38
2021/03/25 10:40:56;;;;;;;6.28;3.60;;;;;;;11.40;31.61;99981.31;5053774;28;20055;-37
2021/03/25 10:43:27;;;;;;;4.68;3.30;;;;;;;10.93;31.67;99978.56;5053297;28;20036;-39
2021/03/25 10:45:55;;;;;;;7.25;3.60;;;;;;;10.74;31.97;99982.78;5053195;28;20060;-38
2021/03/25 10:48:28;;;;;;;18.98;9.02;;;;;;;10.74;32.64;99988.94;5051331;28;20029;-37
2021/03/25 10:51:05;;;;;;;6.82;4.15;;;;;;;10.93;32.94;99982.03;5053413;28;20036;-37
2021/03/25 10:53:36;;;;;;;5.63;3.58;;;;;;;10.54;31.92;99982.69;5053246;28;20021;-40
2021/03/25 10:56:07;;;;;;;8.13;3.90;;;;;;;10.46;33.37;99988.19;5053489;28;20043;-38
2021/03/25 10:58:40;;;;;;;7.05;4.10;;;;;;;10.53;32.84;99981.06;5035770;28;20017;-39
2021/03/25 11:01:29;;;;;;;6.00;3.15;;;;;;;10.24;33.32;99982.88;5035223;28;20024;-38
2021/03/25 11:03:54;;;;;;;5.18;3.95;;;;;;;10.80;31.62;99981.19;5052926;28;20409;-39
2021/03/25 11:06:24;;;;;;;4.53;3.13;;;;;;;10.72;30.51;99982.97;5052563;28;20442;-39
2021/03/25 11:08:50;;;;;;;;;;;;;;;10.70;30.75;99979.69;5053035;28;20358;-39
2021/03/25 11:11:23;;;;;;;5.95;3.97;;;;;;;10.39;32.49;99974.00;5052618;28;19928;-38
2021/03/25 11:14:00;;;;;;;4.60;3.15;;;;;;;9.76;32.34;99972.13;5052575;28;20134;-39
2021/03/25 11:16:25;;;;;;;5.75;3.40;;;;;;;9.81;33.56;99968.91;5053026;28;20024;-39
2021/03/25 11:19:01;;;;;;;5.15;3.60;;;;;;;9.78;34.26;99972.75;5050991;28;20017;-38
2021/03/25 11:21:35;;;;;;;5.10;3.65;;;;;;;9.77;34.37;99974.59;5049689;28;20017;-38
2021/03/25 11:24:09;;;;;;;5.28;3.22;;;;;;;9.58;33.25;99970.75;5015538;28;20021;-39
2021/03/25 11:26:35;;;;;;;8.80;3.13;;;;;;;9.78;32.67;99954.16;5032255;28;20026;-39
2021/03/25 11:29:01;;;;;;;4.95;3.10;;;;;;;9.66;33.87;99961.03;5049984;28;20540;-39
2021/03/25 11:31:30;;;;;;;4.78;3.13;;;;;;;9.73;33.48;99964.56;5054612;28;20028;-39
2021/03/25 11:33:56;;;;;;;13.07;9.18;;;;;;;9.84;35.00;99950.72;5054071;28;20090;-39
2021/03/25 11:36:41;;;;;;;9.38;5.03;;;;;;;9.95;32.90;99962.66;5072238;28;20029;-39
2021/03/25 11:39:14;;;;;;;10.65;5.18;;;;;;;10.78;32.77;99959.25;5072049;28;20473;-39
2021/03/25 11:41:39;;;;;;;9.38;4.05;;;;;;;11.01;32.90;99961.59;5072180;28;20024;-38
2021/03/25 11:44:06;;;;;;;6.75;3.83;;;;;;;10.45;34.07;99959.91;5070624;28;20565;-38
2021/03/25 11:46:37;;;;;;;7.07;3.60;;;;;;;10.44;34.12;99966.28;5071935;28;20442;-40
2021/03/25 11:49:07;;;;;;;6.88;3.53;;;;;;;11.12;33.36;99953.81;5072034;28;20568;-38
2021/03/25 11:51:39;;;;;;;6.85;4.70;;;;;;;12.17;30.70;99960.41;5071985;28;20024;-38
2021/03/25 11:54:32;;;;;;;6.00;3.90;;;;;;;12.20;30.35;99957.31;5072138;28;20027;-38
2021/03/25 11:57:02;;;;;;;4.30;3.15;;;;;;;11.66;30.27;99956.53;5070603;28;20074;-39
2021/03/25 11:59:30;;;;;;;;;;;;;;;11.47;30.64;99956.31;5071065;28;20039;-39
2021/03/25 12:02:18;;;;;;;7.53;5.00;;;;;;;11.43;31.66;99954.28;5071329;28;20385;-39